sensor_id;sensor_type;location;lat;lon;timestamp;temperature;humidity
75210;DHT22;63796;53.136;14.882;2023-07-29T00:01:58;15.90;99.90
75210;DHT22;63796;53.136;14.882;2023-07-29T00:04:25;15.90;99.90
75210;DHT22;63796;53.136;14.882;2023-07-29T00:06:52;15.90;99.90
75210;DHT22;63796;53.136;14.882;2023-07-29T00:09:19;15.90;99.90
75210;DHT22;63796;53.136;14.882;2023-07-29T00:11:46;16.00;99.90
75210;DHT22;63796;53.136;14.882;2023-07-29T00:14:13;16.00;99.90
75210;DHT22;63796;53.136;14.882;2023-07-29T00:16:40;16.00;99.90
75210;DHT22;63796;53.136;14.882;2023-07-29T00:19:09;16.00;99.90
75210;DHT22;63796;53.136;14.882;2023-07-29T00:21:36;16.00;99.90
75210;DHT22;63796;53.136;14.882;2023-07-29T00:24:03;16.10;99.90
75210;DHT22;63796;53.136;14.882;2023-07-29T00:26:30;16.00;99.90
75210;DHT22;63796;53.136;14.882;2023-07-29T00:28:58;16.00;99.90
75210;DHT22;63796;53.136;14.882;2023-07-29T00:31:25;16.00;99.90
75210;DHT22;63796;53.136;14.882;2023-07-29T00:33:52;16.00;99.90
75210;DHT22;63796;53.136;14.882;2023-07-29T00:36:19;16.10;99.90
75210;DHT22;63796;53.136;14.882;2023-07-29T00:38:47;16.10;99.90
75210;DHT22;63796;53.136;14.882;2023-07-29T00:41:14;16.00;99.90
75210;DHT22;63796;53.136;14.882;2023-07-29T00:43:42;16.00;99.90
75210;DHT22;63796;53.136;14.882;2023-07-29T00:46:09;15.80;99.90
75210;DHT22;63796;53.136;14.882;2023-07-29T00:48:36;15.80;99.90
75210;DHT22;63796;53.136;14.882;2023-07-29T00:51:04;15.70;99.90
75210;DHT22;63796;53.136;14.882;2023-07-29T00:53:32;15.60;99.90
75210;DHT22;63796;53.136;14.882;2023-07-29T00:55:59;15.40;99.90
75210;DHT22;63796;53.136;14.882;2023-07-29T00:58:26;15.50;99.90
75210;DHT22;63796;53.136;14.882;2023-07-29T01:00:54;15.60;99.90
75210;DHT22;63796;53.136;14.882;2023-07-29T01:03:22;15.60;99.90
75210;DHT22;63796;53.136;14.882;2023-07-29T01:05:50;15.50;99.90
75210;DHT22;63796;53.136;14.882;2023-07-29T01:08:29;15.60;99.90
75210;DHT22;63796;53.136;14.882;2023-07-29T01:11:08;15.70;99.90
75210;DHT22;63796;53.136;14.882;2023-07-29T01:13:44;15.70;99.90
75210;DHT22;63796;53.136;14.882;2023-07-29T01:16:19;15.60;99.90
75210;DHT22;63796;53.136;14.882;2023-07-29T01:18:50;15.50;99.90
75210;DHT22;63796;53.136;14.882;2023-07-29T01:21:21;15.40;99.90
75210;DHT22;63796;53.136;14.882;2023-07-29T01:23:52;15.40;99.90
75210;DHT22;63796;53.136;14.882;2023-07-29T01:26:20;15.50;99.90
75210;DHT22;63796;53.136;14.882;2023-07-29T01:28:47;15.50;99.90
75210;DHT22;63796;53.136;14.882;2023-07-29T01:31:20;15.60;99.90
75210;DHT22;63796;53.136;14.882;2023-07-29T01:34:10;15.60;99.90
75210;DHT22;63796;53.136;14.882;2023-07-29T01:36:42;15.60;99.90
75210;DHT22;63796;53.136;14.882;2023-07-29T01:39:14;15.70;99.90
75210;DHT22;63796;53.136;14.882;2023-07-29T01:41:43;15.80;99.90
75210;DHT22;63796;53.136;14.882;2023-07-29T01:44:10;15.60;99.90
75210;DHT22;63796;53.136;14.882;2023-07-29T01:46:39;15.50;99.90
75210;DHT22;63796;53.136;14.882;2023-07-29T01:49:06;15.50;99.90
75210;DHT22;63796;53.136;14.882;2023-07-29T01:51:33;15.60;99.90
75210;DHT22;63796;53.136;14.882;2023-07-29T01:54:00;15.50;99.90
75210;DHT22;63796;53.136;14.882;2023-07-29T01:56:27;15.50;99.90
75210;DHT22;63796;53.136;14.882;2023-07-29T01:58:54;15.40;99.90
75210;DHT22;63796;53.136;14.882;2023-07-29T02:01:22;15.40;99.90
75210;DHT22;63796;53.136;14.882;2023-07-29T02:03:49;15.50;99.90
75210;DHT22;63796;53.136;14.882;2023-07-29T02:06:22;15.50;99.90
75210;DHT22;63796;53.136;14.882;2023-07-29T02:08:50;15.50;99.90
75210;DHT22;63796;53.136;14.882;2023-07-29T02:11:17;15.50;99.90
75210;DHT22;63796;53.136;14.882;2023-07-29T02:13:47;15.50;99.90
75210;DHT22;63796;53.136;14.882;2023-07-29T02:16:14;15.50;99.90
75210;DHT22;63796;53.136;14.882;2023-07-29T02:18:41;15.40;99.90
75210;DHT22;63796;53.136;14.882;2023-07-29T02:21:08;15.40;99.90
75210;DHT22;63796;53.136;14.882;2023-07-29T02:23:35;15.30;99.90
75210;DHT22;63796;53.136;14.882;2023-07-29T02:26:02;15.30;99.90
75210;DHT22;63796;53.136;14.882;2023-07-29T02:28:29;15.50;99.90
75210;DHT22;63796;53.136;14.882;2023-07-29T02:31:15;15.50;99.90
75210;DHT22;63796;53.136;14.882;2023-07-29T02:33:44;15.60;99.90
75210;DHT22;63796;53.136;14.882;2023-07-29T02:36:11;15.60;99.90
75210;DHT22;63796;53.136;14.882;2023-07-29T02:38:39;15.60;99.90
75210;DHT22;63796;53.136;14.882;2023-07-29T02:41:07;15.60;99.90
75210;DHT22;63796;53.136;14.882;2023-07-29T02:43:36;15.50;99.90
75210;DHT22;63796;53.136;14.882;2023-07-29T02:46:03;15.50;99.90
75210;DHT22;63796;53.136;14.882;2023-07-29T02:48:31;15.50;99.90
75210;DHT22;63796;53.136;14.882;2023-07-29T02:50:58;15.50;99.90
75210;DHT22;63796;53.136;14.882;2023-07-29T02:53:25;15.50;99.90
75210;DHT22;63796;53.136;14.882;2023-07-29T02:55:52;15.50;99.90
75210;DHT22;63796;53.136;14.882;2023-07-29T02:58:19;15.50;99.90
75210;DHT22;63796;53.136;14.882;2023-07-29T03:00:46;15.50;99.90
75210;DHT22;63796;53.136;14.882;2023-07-29T03:03:15;15.50;99.90
75210;DHT22;63796;53.136;14.882;2023-07-29T03:05:42;15.50;99.90
75210;DHT22;63796;53.136;14.882;2023-07-29T03:08:09;15.60;99.90
75210;DHT22;63796;53.136;14.882;2023-07-29T03:10:37;15.60;99.90
75210;DHT22;63796;53.136;14.882;2023-07-29T03:13:04;15.60;99.90
75210;DHT22;63796;53.136;14.882;2023-07-29T03:15:31;15.60;99.90
75210;DHT22;63796;53.136;14.882;2023-07-29T03:18:00;15.70;99.90
75210;DHT22;63796;53.136;14.882;2023-07-29T03:20:27;15.80;99.90
75210;DHT22;63796;53.136;14.882;2023-07-29T03:22:54;15.80;99.90
75210;DHT22;63796;53.136;14.882;2023-07-29T03:25:22;15.80;99.90
75210;DHT22;63796;53.136;14.882;2023-07-29T03:27:49;15.80;99.90
75210;DHT22;63796;53.136;14.882;2023-07-29T03:30:20;15.80;99.90
75210;DHT22;63796;53.136;14.882;2023-07-29T03:32:48;15.80;99.90
75210;DHT22;63796;53.136;14.882;2023-07-29T03:35:16;15.80;99.90
75210;DHT22;63796;53.136;14.882;2023-07-29T03:37:43;15.80;99.90
75210;DHT22;63796;53.136;14.882;2023-07-29T03:40:10;15.80;99.90
75210;DHT22;63796;53.136;14.882;2023-07-29T03:42:37;15.80;99.90
75210;DHT22;63796;53.136;14.882;2023-07-29T03:45:04;15.90;99.90
75210;DHT22;63796;53.136;14.882;2023-07-29T03:47:32;15.80;99.90
75210;DHT22;63796;53.136;14.882;2023-07-29T03:49:59;15.80;99.90
75210;DHT22;63796;53.136;14.882;2023-07-29T03:52:26;15.80;99.90
75210;DHT22;63796;53.136;14.882;2023-07-29T03:54:53;15.80;99.90
75210;DHT22;63796;53.136;14.882;2023-07-29T03:57:20;15.80;99.90
75210;DHT22;63796;53.136;14.882;2023-07-29T03:59:47;15.80;99.90
75210;DHT22;63796;53.136;14.882;2023-07-29T04:02:14;15.80;99.90
75210;DHT22;63796;53.136;14.882;2023-07-29T04:04:41;15.90;99.90
75210;DHT22;63796;53.136;14.882;2023-07-29T04:07:11;16.10;99.90
75210;DHT22;63796;53.136;14.882;2023-07-29T04:09:38;16.20;99.90
75210;DHT22;63796;53.136;14.882;2023-07-29T04:12:05;16.40;99.90
75210;DHT22;63796;53.136;14.882;2023-07-29T04:14:32;16.70;99.90
75210;DHT22;63796;53.136;14.882;2023-07-29T04:16:59;16.90;99.90
75210;DHT22;63796;53.136;14.882;2023-07-29T04:19:26;16.90;99.90
75210;DHT22;63796;53.136;14.882;2023-07-29T04:21:53;16.80;99.90
75210;DHT22;63796;53.136;14.882;2023-07-29T04:24:20;16.60;99.90
75210;DHT22;63796;53.136;14.882;2023-07-29T04:26:50;16.40;99.90
75210;DHT22;63796;53.136;14.882;2023-07-29T04:29:17;16.30;99.90
75210;DHT22;63796;53.136;14.882;2023-07-29T04:31:44;16.30;99.90
75210;DHT22;63796;53.136;14.882;2023-07-29T04:34:11;16.40;99.90
75210;DHT22;63796;53.136;14.882;2023-07-29T04:36:38;16.60;99.90
75210;DHT22;63796;53.136;14.882;2023-07-29T04:39:05;16.60;99.90
75210;DHT22;63796;53.136;14.882;2023-07-29T04:41:32;16.50;99.90
75210;DHT22;63796;53.136;14.882;2023-07-29T04:43:59;16.60;99.90
75210;DHT22;63796;53.136;14.882;2023-07-29T04:46:27;16.70;99.90
75210;DHT22;63796;53.136;14.882;2023-07-29T04:48:54;16.80;99.90
75210;DHT22;63796;53.136;14.882;2023-07-29T04:51:21;16.70;99.90
75210;DHT22;63796;53.136;14.882;2023-07-29T04:53:50;16.70;99.90
75210;DHT22;63796;53.136;14.882;2023-07-29T04:56:17;16.80;99.90
75210;DHT22;63796;53.136;14.882;2023-07-29T04:58:44;17.30;99.90
75210;DHT22;63796;53.136;14.882;2023-07-29T05:01:11;18.40;99.90
75210;DHT22;63796;53.136;14.882;2023-07-29T05:03:39;18.70;99.90
75210;DHT22;63796;53.136;14.882;2023-07-29T05:06:06;18.00;99.90
75210;DHT22;63796;53.136;14.882;2023-07-29T05:08:34;17.80;99.90
75210;DHT22;63796;53.136;14.882;2023-07-29T05:11:01;17.70;99.90
75210;DHT22;63796;53.136;14.882;2023-07-29T05:13:28;17.80;99.90
75210;DHT22;63796;53.136;14.882;2023-07-29T05:15:55;17.90;99.90
75210;DHT22;63796;53.136;14.882;2023-07-29T05:18:23;18.00;99.90
75210;DHT22;63796;53.136;14.882;2023-07-29T05:20:50;18.10;99.90
75210;DHT22;63796;53.136;14.882;2023-07-29T05:23:17;18.10;99.90
75210;DHT22;63796;53.136;14.882;2023-07-29T05:25:44;18.10;99.90
75210;DHT22;63796;53.136;14.882;2023-07-29T05:28:12;18.20;99.90
75210;DHT22;63796;53.136;14.882;2023-07-29T05:30:39;18.20;99.90
75210;DHT22;63796;53.136;14.882;2023-07-29T05:33:07;18.70;99.90
75210;DHT22;63796;53.136;14.882;2023-07-29T05:35:35;19.40;99.90
75210;DHT22;63796;53.136;14.882;2023-07-29T05:38:02;19.40;99.90
75210;DHT22;63796;53.136;14.882;2023-07-29T05:40:32;19.60;99.90
75210;DHT22;63796;53.136;14.882;2023-07-29T05:42:59;19.80;99.90
75210;DHT22;63796;53.136;14.882;2023-07-29T05:45:26;20.20;99.90
75210;DHT22;63796;53.136;14.882;2023-07-29T05:47:53;20.00;99.90
75210;DHT22;63796;53.136;14.882;2023-07-29T05:50:21;19.70;99.90
75210;DHT22;63796;53.136;14.882;2023-07-29T05:52:48;19.60;99.90
75210;DHT22;63796;53.136;14.882;2023-07-29T05:55:15;19.90;99.90
75210;DHT22;63796;53.136;14.882;2023-07-29T05:57:42;20.20;99.90
75210;DHT22;63796;53.136;14.882;2023-07-29T06:00:10;20.20;99.90
75210;DHT22;63796;53.136;14.882;2023-07-29T06:02:37;20.30;99.90
75210;DHT22;63796;53.136;14.882;2023-07-29T06:05:05;20.40;99.90
75210;DHT22;63796;53.136;14.882;2023-07-29T06:07:32;20.70;99.90
75210;DHT22;63796;53.136;14.882;2023-07-29T06:10:00;20.40;99.90
75210;DHT22;63796;53.136;14.882;2023-07-29T06:12:27;20.90;99.90
75210;DHT22;63796;53.136;14.882;2023-07-29T06:14:54;21.70;99.90
75210;DHT22;63796;53.136;14.882;2023-07-29T06:17:21;21.50;99.90
75210;DHT22;63796;53.136;14.882;2023-07-29T06:19:49;21.70;99.90
75210;DHT22;63796;53.136;14.882;2023-07-29T06:22:16;21.10;99.90
75210;DHT22;63796;53.136;14.882;2023-07-29T06:24:43;21.10;99.90
75210;DHT22;63796;53.136;14.882;2023-07-29T06:27:10;22.20;99.90
75210;DHT22;63796;53.136;14.882;2023-07-29T06:29:37;21.90;99.90
75210;DHT22;63796;53.136;14.882;2023-07-29T06:32:04;22.20;99.90
75210;DHT22;63796;53.136;14.882;2023-07-29T06:34:32;22.70;99.90
75210;DHT22;63796;53.136;14.882;2023-07-29T06:36:59;23.00;99.90
75210;DHT22;63796;53.136;14.882;2023-07-29T06:39:26;23.90;99.90
75210;DHT22;63796;53.136;14.882;2023-07-29T06:41:53;25.40;99.90
75210;DHT22;63796;53.136;14.882;2023-07-29T06:44:20;25.20;99.90
75210;DHT22;63796;53.136;14.882;2023-07-29T06:46:47;24.50;99.90
75210;DHT22;63796;53.136;14.882;2023-07-29T06:49:15;27.30;99.90
75210;DHT22;63796;53.136;14.882;2023-07-29T06:51:42;28.60;99.90
75210;DHT22;63796;53.136;14.882;2023-07-29T06:54:09;28.80;99.90
75210;DHT22;63796;53.136;14.882;2023-07-29T06:56:36;28.40;99.90
75210;DHT22;63796;53.136;14.882;2023-07-29T06:59:04;28.90;99.90
75210;DHT22;63796;53.136;14.882;2023-07-29T07:01:31;28.50;99.90
75210;DHT22;63796;53.136;14.882;2023-07-29T07:03:58;30.10;99.90
75210;DHT22;63796;53.136;14.882;2023-07-29T07:06:25;31.00;99.90
75210;DHT22;63796;53.136;14.882;2023-07-29T07:08:53;32.10;99.90
75210;DHT22;63796;53.136;14.882;2023-07-29T07:11:20;31.00;99.90
75210;DHT22;63796;53.136;14.882;2023-07-29T07:13:47;32.00;99.90
75210;DHT22;63796;53.136;14.882;2023-07-29T07:16:14;31.90;99.90
75210;DHT22;63796;53.136;14.882;2023-07-29T07:18:41;30.30;99.90
75210;DHT22;63796;53.136;14.882;2023-07-29T07:21:08;30.10;99.90
75210;DHT22;63796;53.136;14.882;2023-07-29T07:23:35;29.80;99.90
75210;DHT22;63796;53.136;14.882;2023-07-29T07:26:03;30.40;99.90
75210;DHT22;63796;53.136;14.882;2023-07-29T07:28:30;30.30;99.90
75210;DHT22;63796;53.136;14.882;2023-07-29T07:30:58;30.50;99.90
75210;DHT22;63796;53.136;14.882;2023-07-29T07:33:26;29.90;99.90
75210;DHT22;63796;53.136;14.882;2023-07-29T07:35:53;29.20;99.90
75210;DHT22;63796;53.136;14.882;2023-07-29T07:38:20;30.40;99.90
75210;DHT22;63796;53.136;14.882;2023-07-29T07:40:54;31.40;99.90
75210;DHT22;63796;53.136;14.882;2023-07-29T07:43:24;31.60;99.90
75210;DHT22;63796;53.136;14.882;2023-07-29T07:45:57;31.10;99.90
75210;DHT22;63796;53.136;14.882;2023-07-29T07:48:25;31.20;99.90
75210;DHT22;63796;53.136;14.882;2023-07-29T07:50:53;31.00;99.90
75210;DHT22;63796;53.136;14.882;2023-07-29T07:53:21;29.90;99.90
75210;DHT22;63796;53.136;14.882;2023-07-29T07:55:48;29.80;99.90
75210;DHT22;63796;53.136;14.882;2023-07-29T07:58:15;30.30;99.90
75210;DHT22;63796;53.136;14.882;2023-07-29T08:00:42;30.90;99.90
75210;DHT22;63796;53.136;14.882;2023-07-29T08:03:09;31.80;99.90
75210;DHT22;63796;53.136;14.882;2023-07-29T08:05:36;31.80;99.90
75210;DHT22;63796;53.136;14.882;2023-07-29T08:08:04;32.30;99.90
75210;DHT22;63796;53.136;14.882;2023-07-29T08:10:31;32.00;99.90
75210;DHT22;63796;53.136;14.882;2023-07-29T08:12:58;31.80;99.90
75210;DHT22;63796;53.136;14.882;2023-07-29T08:15:26;32.70;99.90
75210;DHT22;63796;53.136;14.882;2023-07-29T08:17:53;32.30;99.90
75210;DHT22;63796;53.136;14.882;2023-07-29T08:20:20;32.10;99.90
75210;DHT22;63796;53.136;14.882;2023-07-29T08:22:47;33.70;99.90
75210;DHT22;63796;53.136;14.882;2023-07-29T08:25:14;32.30;99.90
75210;DHT22;63796;53.136;14.882;2023-07-29T08:27:41;33.90;99.90
75210;DHT22;63796;53.136;14.882;2023-07-29T08:30:08;33.10;99.90
75210;DHT22;63796;53.136;14.882;2023-07-29T08:32:36;32.20;99.90
75210;DHT22;63796;53.136;14.882;2023-07-29T08:35:03;31.60;99.90
75210;DHT22;63796;53.136;14.882;2023-07-29T08:37:31;30.90;99.90
75210;DHT22;63796;53.136;14.882;2023-07-29T08:39:59;31.60;99.90
75210;DHT22;63796;53.136;14.882;2023-07-29T08:42:28;31.00;99.90
75210;DHT22;63796;53.136;14.882;2023-07-29T08:44:56;31.00;99.90
75210;DHT22;63796;53.136;14.882;2023-07-29T08:47:23;30.40;99.90
75210;DHT22;63796;53.136;14.882;2023-07-29T08:49:50;30.40;99.90
75210;DHT22;63796;53.136;14.882;2023-07-29T08:52:19;29.70;99.90
75210;DHT22;63796;53.136;14.882;2023-07-29T08:54:47;30.40;99.90
75210;DHT22;63796;53.136;14.882;2023-07-29T08:57:14;28.30;99.90
75210;DHT22;63796;53.136;14.882;2023-07-29T08:59:41;29.30;99.90
75210;DHT22;63796;53.136;14.882;2023-07-29T09:02:09;28.70;99.90
75210;DHT22;63796;53.136;14.882;2023-07-29T09:04:36;28.30;99.90
75210;DHT22;63796;53.136;14.882;2023-07-29T09:07:03;27.50;99.90
75210;DHT22;63796;53.136;14.882;2023-07-29T09:09:33;28.20;99.90
75210;DHT22;63796;53.136;14.882;2023-07-29T09:12:00;28.20;99.90
75210;DHT22;63796;53.136;14.882;2023-07-29T09:14:28;27.20;99.90
75210;DHT22;63796;53.136;14.882;2023-07-29T09:16:55;26.60;99.90
75210;DHT22;63796;53.136;14.882;2023-07-29T09:19:25;27.00;99.90
75210;DHT22;63796;53.136;14.882;2023-07-29T09:21:53;27.80;99.90
75210;DHT22;63796;53.136;14.882;2023-07-29T09:24:20;28.10;99.90
75210;DHT22;63796;53.136;14.882;2023-07-29T09:26:48;28.00;99.90
75210;DHT22;63796;53.136;14.882;2023-07-29T09:29:21;27.40;99.90
75210;DHT22;63796;53.136;14.882;2023-07-29T09:31:49;27.40;99.90
75210;DHT22;63796;53.136;14.882;2023-07-29T09:34:16;29.00;99.90
75210;DHT22;63796;53.136;14.882;2023-07-29T09:36:44;29.00;99.90
75210;DHT22;63796;53.136;14.882;2023-07-29T09:39:12;28.50;99.90
75210;DHT22;63796;53.136;14.882;2023-07-29T09:41:46;30.00;99.90
75210;DHT22;63796;53.136;14.882;2023-07-29T09:44:15;33.20;99.90
75210;DHT22;63796;53.136;14.882;2023-07-29T09:46:45;33.70;99.90
75210;DHT22;63796;53.136;14.882;2023-07-29T09:49:13;32.10;99.90
75210;DHT22;63796;53.136;14.882;2023-07-29T09:51:40;30.90;99.90
75210;DHT22;63796;53.136;14.882;2023-07-29T09:54:08;30.30;99.90
75210;DHT22;63796;53.136;14.882;2023-07-29T09:56:39;31.40;99.90
75210;DHT22;63796;53.136;14.882;2023-07-29T09:59:10;29.70;99.90
75210;DHT22;63796;53.136;14.882;2023-07-29T10:01:38;28.30;99.90
75210;DHT22;63796;53.136;14.882;2023-07-29T10:04:06;27.60;99.90
75210;DHT22;63796;53.136;14.882;2023-07-29T10:06:38;27.30;99.90
75210;DHT22;63796;53.136;14.882;2023-07-29T10:09:06;29.60;99.90
75210;DHT22;63796;53.136;14.882;2023-07-29T10:11:34;28.70;99.90
75210;DHT22;63796;53.136;14.882;2023-07-29T10:14:02;29.20;99.90
75210;DHT22;63796;53.136;14.882;2023-07-29T10:16:37;29.40;99.90
75210;DHT22;63796;53.136;14.882;2023-07-29T10:19:07;29.50;99.90
75210;DHT22;63796;53.136;14.882;2023-07-29T10:21:35;29.20;99.90
75210;DHT22;63796;53.136;14.882;2023-07-29T10:24:08;28.50;99.90
75210;DHT22;63796;53.136;14.882;2023-07-29T10:26:38;28.10;99.90
75210;DHT22;63796;53.136;14.882;2023-07-29T10:29:10;26.80;99.90
75210;DHT22;63796;53.136;14.882;2023-07-29T10:31:40;26.00;99.90
75210;DHT22;63796;53.136;14.882;2023-07-29T10:34:10;25.90;99.90
75210;DHT22;63796;53.136;14.882;2023-07-29T10:36:38;25.50;99.90
75210;DHT22;63796;53.136;14.882;2023-07-29T10:39:08;25.30;99.90
75210;DHT22;63796;53.136;14.882;2023-07-29T10:47:26;20.00;99.90
75210;DHT22;63796;53.136;14.882;2023-07-29T10:49:55;20.00;99.90
75210;DHT22;63796;53.136;14.882;2023-07-29T10:52:30;20.20;99.90
75210;DHT22;63796;53.136;14.882;2023-07-29T10:55:24;20.90;99.90
75210;DHT22;63796;53.136;14.882;2023-07-29T10:58:04;24.30;99.90
75210;DHT22;63796;53.136;14.882;2023-07-29T11:00:33;27.20;99.90
75210;DHT22;63796;53.136;14.882;2023-07-29T11:03:01;28.10;99.90
75210;DHT22;63796;53.136;14.882;2023-07-29T11:08:16;23.10;99.90
75210;DHT22;63796;53.136;14.882;2023-07-29T11:10:56;23.40;99.90
75210;DHT22;63796;53.136;14.882;2023-07-29T11:13:28;26.00;99.90
75210;DHT22;63796;53.136;14.882;2023-07-29T11:15:57;27.00;99.90
75210;DHT22;63796;53.136;14.882;2023-07-29T11:18:26;24.50;99.90
75210;DHT22;63796;53.136;14.882;2023-07-29T11:20:58;24.70;99.90
75210;DHT22;63796;53.136;14.882;2023-07-29T11:23:30;26.00;99.90
75210;DHT22;63796;53.136;14.882;2023-07-29T11:26:02;26.90;99.90
75210;DHT22;63796;53.136;14.882;2023-07-29T11:28:30;28.00;99.90
75210;DHT22;63796;53.136;14.882;2023-07-29T11:30:57;28.90;99.90
75210;DHT22;63796;53.136;14.882;2023-07-29T11:33:25;30.50;99.90
75210;DHT22;63796;53.136;14.882;2023-07-29T11:35:55;32.40;99.90
75210;DHT22;63796;53.136;14.882;2023-07-29T11:38:22;32.20;99.90
75210;DHT22;63796;53.136;14.882;2023-07-29T11:40:59;31.40;99.90
75210;DHT22;63796;53.136;14.882;2023-07-29T11:43:34;29.90;99.90
75210;DHT22;63796;53.136;14.882;2023-07-29T11:46:02;29.00;99.90
75210;DHT22;63796;53.136;14.882;2023-07-29T11:48:31;27.80;99.90
75210;DHT22;63796;53.136;14.882;2023-07-29T11:51:00;27.80;99.90
75210;DHT22;63796;53.136;14.882;2023-07-29T11:53:28;28.60;99.90
75210;DHT22;63796;53.136;14.882;2023-07-29T11:55:56;28.30;99.90
75210;DHT22;63796;53.136;14.882;2023-07-29T11:58:24;27.00;99.90
75210;DHT22;63796;53.136;14.882;2023-07-29T12:00:52;26.20;99.90
75210;DHT22;63796;53.136;14.882;2023-07-29T12:03:20;26.50;99.90
75210;DHT22;63796;53.136;14.882;2023-07-29T12:05:48;26.90;99.90
75210;DHT22;63796;53.136;14.882;2023-07-29T12:08:15;27.40;99.90
75210;DHT22;63796;53.136;14.882;2023-07-29T12:10:43;27.10;99.90
75210;DHT22;63796;53.136;14.882;2023-07-29T12:13:10;26.50;99.90
75210;DHT22;63796;53.136;14.882;2023-07-29T12:15:37;27.80;99.90
75210;DHT22;63796;53.136;14.882;2023-07-29T12:18:06;28.10;99.90
75210;DHT22;63796;53.136;14.882;2023-07-29T12:20:33;27.70;99.90
75210;DHT22;63796;53.136;14.882;2023-07-29T12:23:01;28.80;99.90
75210;DHT22;63796;53.136;14.882;2023-07-29T12:25:29;28.70;99.90
75210;DHT22;63796;53.136;14.882;2023-07-29T12:28:01;28.40;99.90
75210;DHT22;63796;53.136;14.882;2023-07-29T12:30:30;27.90;99.90
75210;DHT22;63796;53.136;14.882;2023-07-29T12:32:57;27.50;99.90
75210;DHT22;63796;53.136;14.882;2023-07-29T12:35:24;27.30;99.90
75210;DHT22;63796;53.136;14.882;2023-07-29T12:38:00;26.70;99.90
75210;DHT22;63796;53.136;14.882;2023-07-29T12:40:27;26.60;99.90
75210;DHT22;63796;53.136;14.882;2023-07-29T12:42:54;26.60;99.90
75210;DHT22;63796;53.136;14.882;2023-07-29T12:45:22;26.40;99.90
75210;DHT22;63796;53.136;14.882;2023-07-29T12:47:53;26.40;99.90
75210;DHT22;63796;53.136;14.882;2023-07-29T12:50:20;26.00;99.90
75210;DHT22;63796;53.136;14.882;2023-07-29T12:52:48;25.90;99.90
75210;DHT22;63796;53.136;14.882;2023-07-29T12:55:15;25.90;99.90
75210;DHT22;63796;53.136;14.882;2023-07-29T12:57:46;26.00;99.90
75210;DHT22;63796;53.136;14.882;2023-07-29T13:00:13;25.80;99.90
75210;DHT22;63796;53.136;14.882;2023-07-29T13:02:40;25.70;99.90
75210;DHT22;63796;53.136;14.882;2023-07-29T13:05:11;25.70;99.90
75210;DHT22;63796;53.136;14.882;2023-07-29T13:07:39;25.60;99.90
75210;DHT22;63796;53.136;14.882;2023-07-29T13:10:06;25.60;99.90
75210;DHT22;63796;53.136;14.882;2023-07-29T13:12:34;25.50;99.90
75210;DHT22;63796;53.136;14.882;2023-07-29T13:15:01;25.40;99.90
75210;DHT22;63796;53.136;14.882;2023-07-29T13:17:29;25.40;99.90
75210;DHT22;63796;53.136;14.882;2023-07-29T13:19:56;25.30;99.90
75210;DHT22;63796;53.136;14.882;2023-07-29T13:22:23;24.50;99.90
75210;DHT22;63796;53.136;14.882;2023-07-29T13:24:50;22.80;99.90
75210;DHT22;63796;53.136;14.882;2023-07-29T13:27:17;22.20;99.90
75210;DHT22;63796;53.136;14.882;2023-07-29T13:29:44;21.80;99.90
75210;DHT22;63796;53.136;14.882;2023-07-29T13:32:12;21.40;99.90
75210;DHT22;63796;53.136;14.882;2023-07-29T13:34:39;21.20;99.90
75210;DHT22;63796;53.136;14.882;2023-07-29T13:37:07;21.10;99.90
75210;DHT22;63796;53.136;14.882;2023-07-29T13:39:34;20.90;99.90
75210;DHT22;63796;53.136;14.882;2023-07-29T13:42:01;20.60;99.90
75210;DHT22;63796;53.136;14.882;2023-07-29T13:44:29;20.30;99.90
75210;DHT22;63796;53.136;14.882;2023-07-29T13:46:56;20.30;99.90
75210;DHT22;63796;53.136;14.882;2023-07-29T13:49:23;20.30;99.90
75210;DHT22;63796;53.136;14.882;2023-07-29T13:51:50;20.10;99.90
75210;DHT22;63796;53.136;14.882;2023-07-29T13:54:17;20.20;99.90
75210;DHT22;63796;53.136;14.882;2023-07-29T13:56:44;20.20;99.90
75210;DHT22;63796;53.136;14.882;2023-07-29T13:59:11;20.10;99.90
75210;DHT22;63796;53.136;14.882;2023-07-29T14:01:38;20.10;99.90
75210;DHT22;63796;53.136;14.882;2023-07-29T14:04:05;20.00;99.90
75210;DHT22;63796;53.136;14.882;2023-07-29T14:06:32;20.00;99.90
75210;DHT22;63796;53.136;14.882;2023-07-29T14:09:12;20.00;99.90
75210;DHT22;63796;53.136;14.882;2023-07-29T14:11:39;19.90;99.90
75210;DHT22;63796;53.136;14.882;2023-07-29T14:14:07;20.10;99.90
75210;DHT22;63796;53.136;14.882;2023-07-29T14:16:34;20.20;99.90
75210;DHT22;63796;53.136;14.882;2023-07-29T14:19:02;20.30;99.90
75210;DHT22;63796;53.136;14.882;2023-07-29T14:21:30;20.40;99.90
75210;DHT22;63796;53.136;14.882;2023-07-29T14:23:57;20.60;99.90
75210;DHT22;63796;53.136;14.882;2023-07-29T14:26:24;20.80;99.90
75210;DHT22;63796;53.136;14.882;2023-07-29T14:28:51;20.80;99.90
75210;DHT22;63796;53.136;14.882;2023-07-29T14:31:18;21.00;99.90
75210;DHT22;63796;53.136;14.882;2023-07-29T14:33:45;21.30;99.90
75210;DHT22;63796;53.136;14.882;2023-07-29T14:36:12;21.50;99.90
75210;DHT22;63796;53.136;14.882;2023-07-29T14:38:39;21.80;99.90
75210;DHT22;63796;53.136;14.882;2023-07-29T14:41:07;21.80;99.90
75210;DHT22;63796;53.136;14.882;2023-07-29T14:43:34;21.50;99.90
75210;DHT22;63796;53.136;14.882;2023-07-29T14:46:02;21.30;99.90
75210;DHT22;63796;53.136;14.882;2023-07-29T14:48:29;21.50;99.90
75210;DHT22;63796;53.136;14.882;2023-07-29T14:50:56;21.60;99.90
75210;DHT22;63796;53.136;14.882;2023-07-29T14:53:23;21.80;99.90
75210;DHT22;63796;53.136;14.882;2023-07-29T14:55:52;22.10;99.90
75210;DHT22;63796;53.136;14.882;2023-07-29T14:58:19;22.70;99.90
75210;DHT22;63796;53.136;14.882;2023-07-29T15:00:46;22.90;99.90
75210;DHT22;63796;53.136;14.882;2023-07-29T15:03:13;22.90;99.90
75210;DHT22;63796;53.136;14.882;2023-07-29T15:05:41;23.10;99.90
75210;DHT22;63796;53.136;14.882;2023-07-29T15:08:08;23.30;99.90
75210;DHT22;63796;53.136;14.882;2023-07-29T15:10:35;23.40;99.90
75210;DHT22;63796;53.136;14.882;2023-07-29T15:13:02;23.20;99.90
75210;DHT22;63796;53.136;14.882;2023-07-29T15:15:29;23.30;99.90
75210;DHT22;63796;53.136;14.882;2023-07-29T15:17:56;23.20;99.90
75210;DHT22;63796;53.136;14.882;2023-07-29T15:20:24;23.30;99.90
75210;DHT22;63796;53.136;14.882;2023-07-29T15:22:51;23.30;99.90
75210;DHT22;63796;53.136;14.882;2023-07-29T15:25:18;23.40;99.90
75210;DHT22;63796;53.136;14.882;2023-07-29T15:27:45;23.40;99.90
75210;DHT22;63796;53.136;14.882;2023-07-29T15:30:13;23.30;99.90